Time;durP1;ratioP1;P1;durP2;ratioP2;P2;SDS_P1;SDS_P2;PMS_P1;PMS_P2;Temp;Humidity;BMP_temperature;BMP_pressure;BME280_temperature;BME280_humidity;BME280_pressure;Samples;Min_cycle;Max_cycle;Signal;HPM_P1;HPM_P2
2022/08/14 00:02:07;;;;;;;6.28;1.92;;;29.30;22.50;;;;;;6004368;29;20628;-72
2022/08/14 00:05:11;;;;;;;3.55;1.90;;;29.20;22.70;;;;;;6006035;29;20125;-72
2022/08/14 00:08:12;;;;;;;5.82;1.83;;;29.10;22.90;;;;;;5988915;29;20141;-72
2022/08/14 00:11:13;;;;;;;3.60;1.60;;;29.00;23.00;;;;;;5983163;29;20122;-71
2022/08/14 00:14:14;;;;;;;5.40;1.67;;;29.00;23.10;;;;;;6003469;29;20492;-73
2022/08/14 00:17:15;;;;;;;4.57;1.48;;;28.90;23.20;;;;;;5988337;29;20598;-72
2022/08/14 00:20:19;;;;;;;2.53;1.83;;;28.90;23.30;;;;;;6006842;29;20046;-72
2022/08/14 00:23:20;;;;;;;2.65;1.92;;;28.90;23.40;;;;;;6004316;29;20160;-71
2022/08/14 00:26:22;;;;;;;10.18;1.70;;;28.90;23.60;;;;;;5991609;29;20054;-71
2022/08/14 00:29:23;;;;;;;4.68;1.75;;;28.80;23.80;;;;;;5987412;29;20498;-71
2022/08/14 00:32:24;;;;;;;4.85;2.28;;;28.70;23.90;;;;;;6004066;29;20157;-73
2022/08/14 00:35:25;;;;;;;3.08;1.88;;;28.70;24.00;;;;;;5988454;29;20175;-71
2022/08/14 00:38:25;;;;;;;3.75;2.03;;;28.60;24.20;;;;;;5989380;29;20053;-72
2022/08/14 00:41:31;;;;;;;4.35;1.92;;;28.60;24.40;;;;;;5989667;29;20149;-73
2022/08/14 00:44:32;;;;;;;3.97;2.35;;;28.50;24.50;;;;;;5983361;29;20110;-71
2022/08/14 00:47:34;;;;;;;11.15;2.30;;;28.50;24.50;;;;;;5989745;29;20153;-72
2022/08/14 00:50:35;;;;;;;4.13;2.30;;;28.40;24.50;;;;;;6005551;29;20073;-73
2022/08/14 00:53:38;;;;;;;8.18;2.33;;;28.40;24.50;;;;;;6006558;29;20094;-71
2022/08/14 00:56:39;;;;;;;7.80;2.33;;;28.40;24.40;;;;;;6006200;29;20053;-72
2022/08/14 00:59:40;;;;;;;4.65;2.42;;;28.30;24.30;;;;;;6005915;29;20053;-72
2022/08/14 01:02:43;;;;;;;3.35;2.30;;;28.40;24.20;;;;;;6004694;29;20038;-71
2022/08/14 01:05:48;;;;;;;3.25;2.22;;;28.40;24.20;;;;;;6005621;29;20037;-72
2022/08/14 01:08:49;;;;;;;7.03;2.50;;;28.40;24.10;;;;;;6002663;29;20117;-71
2022/08/14 01:11:52;;;;;;;15.57;3.00;;;28.50;24.10;;;;;;5996541;29;20482;-72
2022/08/14 01:14:54;;;;;;;14.60;3.63;;;28.50;24.10;;;;;;6004640;29;20113;-72
2022/08/14 01:21:15;;;;;;;9.52;2.50;;;28.40;23.90;;;;;;6006614;29;20050;-71
2022/08/14 01:24:17;;;;;;;4.00;1.80;;;28.40;24.00;;;;;;6002707;29;20132;-71
2022/08/14 01:27:20;;;;;;;7.72;2.05;;;28.40;24.10;;;;;;6004269;29;20079;-72
2022/08/14 01:30:22;;;;;;;6.57;2.20;;;28.30;24.20;;;;;;6001059;29;20065;-71
2022/08/14 01:33:29;;;;;;;4.07;1.90;;;28.30;24.30;;;;;;5970968;29;20057;-73
2022/08/14 01:36:36;;;;;;;6.80;1.70;;;28.30;24.40;;;;;;6003845;29;20099;-71
2022/08/14 01:39:38;;;;;;;2.97;1.60;;;28.30;24.50;;;;;;6002759;29;20053;-71
2022/08/14 01:42:41;;;;;;;4.10;1.90;;;28.20;24.50;;;;;;5992827;29;20069;-72
2022/08/14 01:45:44;;;;;;;2.75;2.03;;;28.20;24.60;;;;;;6000865;29;20089;-71
2022/08/14 01:48:45;;;;;;;2.03;1.42;;;28.20;24.80;;;;;;6002619;29;20156;-72
2022/08/14 01:51:47;;;;;;;2.45;1.80;;;28.20;25.00;;;;;;6005534;29;20094;-72
2022/08/14 01:54:48;;;;;;;3.38;1.70;;;28.20;25.20;;;;;;6001482;29;20053;-71
2022/08/14 01:57:49;;;;;;;2.30;1.75;;;28.10;25.20;;;;;;6011825;29;20117;-72
2022/08/14 02:00:53;;;;;;;2.78;1.95;;;28.10;25.30;;;;;;6003095;29;20050;-72
2022/08/14 02:03:54;;;;;;;3.80;1.45;;;28.10;25.40;;;;;;6002646;29;20176;-72
2022/08/14 02:06:55;;;;;;;3.85;1.70;;;28.10;25.30;;;;;;6002501;29;20034;-72
2022/08/14 02:09:55;;;;;;;6.15;2.20;;;28.00;25.50;;;;;;6003082;29;20074;-72
2022/08/14 02:12:56;;;;;;;5.85;1.70;;;28.00;25.40;;;;;;6001504;29;20049;-71
2022/08/14 02:15:59;;;;;;;3.83;1.52;;;28.00;25.40;;;;;;5993366;29;20082;-72
2022/08/14 02:19:03;;;;;;;3.97;2.30;;;27.90;25.40;;;;;;6003948;29;20079;-72
2022/08/14 02:22:05;;;;;;;1.98;1.58;;;27.90;25.50;;;;;;6000855;29;20045;-72
2022/08/14 02:25:06;;;;;;;3.20;1.88;;;27.90;25.60;;;;;;6002566;29;20046;-72
2022/08/14 02:28:07;;;;;;;7.18;1.92;;;27.90;25.70;;;;;;6001598;29;20088;-72
2022/08/14 02:31:11;;;;;;;8.88;1.70;;;27.80;25.70;;;;;;5995301;29;20049;-72
2022/08/14 02:34:12;;;;;;;3.42;1.63;;;27.80;25.80;;;;;;6001148;29;20050;-72
2022/08/14 02:37:14;;;;;;;2.17;1.77;;;27.70;25.90;;;;;;6002675;29;20038;-72
2022/08/14 02:40:20;;;;;;;5.00;2.05;;;27.70;25.90;;;;;;6008523;29;20054;-72
2022/08/14 02:43:21;;;;;;;3.00;2.08;;;27.70;26.10;;;;;;6000510;29;20050;-71
2022/08/14 02:46:22;;;;;;;5.85;2.40;;;27.60;26.30;;;;;;5992711;29;20046;-72
2022/08/14 02:49:27;;;;;;;2.95;1.85;;;27.50;26.40;;;;;;5985561;29;20125;-72
2022/08/14 02:52:28;;;;;;;8.25;1.95;;;27.40;26.50;;;;;;6005720;29;20049;-72
2022/08/14 02:55:31;;;;;;;2.22;1.73;;;27.40;26.50;;;;;;6001523;29;20038;-72
2022/08/14 02:58:38;;;;;;;2.72;1.80;;;27.30;26.50;;;;;;6002195;29;20034;-72
2022/08/14 03:01:39;;;;;;;2.45;1.63;;;27.20;26.50;;;;;;5987007;29;20118;-72
2022/08/14 03:04:40;;;;;;;2.65;1.85;;;27.20;26.60;;;;;;5986131;29;20478;-72
2022/08/14 03:07:41;;;;;;;4.25;1.60;;;27.10;26.70;;;;;;6003812;29;20054;-72
2022/08/14 03:10:42;;;;;;;2.88;1.60;;;27.10;26.90;;;;;;5986883;29;20118;-71
2022/08/14 03:13:46;;;;;;;3.08;1.60;;;27.10;26.90;;;;;;6003608;29;20043;-71
2022/08/14 03:16:49;;;;;;;3.10;1.52;;;27.10;26.90;;;;;;6008669;29;20048;-72
2022/08/14 03:19:51;;;;;;;2.75;1.70;;;27.10;26.80;;;;;;5992603;29;20160;-71
2022/08/14 03:22:52;;;;;;;2.63;1.45;;;27.20;26.80;;;;;;6006818;29;20072;-72
2022/08/14 03:25:53;;;;;;;3.47;1.88;;;27.20;26.80;;;;;;6008774;29;20038;-72
2022/08/14 03:28:54;;;;;;;3.65;1.77;;;27.20;26.80;;;;;;5983584;29;20048;-73
2022/08/14 03:31:55;;;;;;;1.10;1.00;;;27.20;26.80;;;;;;5989746;29;21565;-71
2022/08/14 03:35:00;;;;;;;2.33;1.75;;;27.20;27.00;;;;;;6008346;29;20070;-71
2022/08/14 03:38:09;;;;;;;3.33;1.73;;;27.10;27.10;;;;;;6007057;29;20038;-72
2022/08/14 03:41:16;;;;;;;11.40;1.60;;;27.00;27.30;;;;;;5985157;29;20551;-72
2022/08/14 03:44:18;;;;;;;2.58;1.73;;;27.00;27.40;;;;;;6005818;29;20079;-72
2022/08/14 03:47:18;;;;;;;3.00;1.98;;;26.90;27.40;;;;;;5992105;29;20050;-71
2022/08/14 03:50:19;;;;;;;3.88;1.90;;;26.90;27.70;;;;;;5989765;29;20129;-72
2022/08/14 03:53:20;;;;;;;3.97;1.70;;;26.90;27.90;;;;;;5991832;29;20358;-71
2022/08/14 03:56:22;;;;;;;2.63;1.80;;;26.80;28.00;;;;;;6006962;29;20698;-71
2022/08/14 03:59:23;;;;;;;1.73;1.42;;;26.70;28.10;;;;;;6005618;29;20544;-71
2022/08/14 04:02:24;;;;;;;2.10;1.50;;;26.70;28.00;;;;;;5990446;29;20038;-71
2022/08/14 04:05:25;;;;;;;3.05;1.65;;;26.70;28.00;;;;;;5984024;29;20477;-72
2022/08/14 04:08:26;;;;;;;3.22;1.58;;;26.70;28.10;;;;;;6007394;29;20038;-71
2022/08/14 04:11:28;;;;;;;4.20;1.52;;;26.70;28.10;;;;;;6006808;29;20128;-71
2022/08/14 04:14:29;;;;;;;6.32;1.35;;;26.60;28.10;;;;;;5990497;29;20038;-71
2022/08/14 04:17:32;;;;;;;2.70;1.65;;;26.50;28.00;;;;;;6005852;29;21637;-71
2022/08/14 04:20:34;;;;;;;2.88;1.65;;;26.50;28.10;;;;;;6005953;29;20038;-71
2022/08/14 04:23:35;;;;;;;3.60;1.60;;;26.50;28.10;;;;;;5998502;29;20440;-71
2022/08/14 04:26:36;;;;;;;7.18;1.60;;;26.50;28.30;;;;;;5973146;29;20070;-72
2022/08/14 04:29:42;;;;;;;2.10;1.67;;;26.50;28.40;;;;;;5991247;29;20045;-71
2022/08/14 04:32:43;;;;;;;1.90;1.40;;;26.40;28.40;;;;;;6005391;29;20479;-71
2022/08/14 04:35:44;;;;;;;3.55;1.77;;;26.40;28.30;;;;;;6001626;29;20372;-71
2022/08/14 04:45:35;;;;;;;2.33;1.17;;;26.50;28.10;;;;;;6003174;29;20038;-71
2022/08/14 04:48:36;;;;;;;2.75;1.50;;;26.50;28.00;;;;;;5995766;29;20057;-71
2022/08/14 04:51:37;;;;;;;2.40;1.10;;;26.60;28.00;;;;;;6004542;29;20609;-71
2022/08/14 04:54:37;;;;;;;2.13;1.70;;;26.60;28.10;;;;;;6004384;29;20060;-73
2022/08/14 04:57:38;;;;;;;2.08;1.80;;;26.60;28.20;;;;;;6005292;29;20050;-72
2022/08/14 05:00:40;;;;;;;2.58;1.80;;;26.60;28.40;;;;;;6002272;29;20398;-72
2022/08/14 05:03:41;;;;;;;2.55;1.98;;;26.60;28.60;;;;;;5988512;29;20041;-71
2022/08/14 05:06:42;;;;;;;3.78;1.70;;;26.50;28.70;;;;;;5988148;29;20129;-71
2022/08/14 05:09:43;;;;;;;9.35;1.85;;;26.50;28.80;;;;;;5993216;29;20050;-72
2022/08/14 05:12:44;;;;;;;2.53;1.67;;;26.50;28.70;;;;;;5996113;29;20536;-71
2022/08/14 05:15:45;;;;;;;3.60;1.45;;;26.50;28.60;;;;;;6003931;29;20057;-71
2022/08/14 05:18:48;;;;;;;2.95;1.80;;;26.60;28.60;;;;;;5972949;29;20045;-71
2022/08/14 05:21:49;;;;;;;1.70;1.60;;;26.70;28.50;;;;;;5987433;29;20102;-71
2022/08/14 05:24:50;;;;;;;2.75;1.50;;;26.80;28.40;;;;;;5987333;29;20053;-73
2022/08/14 05:27:51;;;;;;;7.00;1.60;;;27.00;28.30;;;;;;6002979;29;20145;-71
2022/08/14 05:30:58;;;;;;;3.50;1.73;;;27.00;28.20;;;;;;5988002;29;20045;-71
2022/08/14 05:33:58;;;;;;;2.17;1.50;;;27.10;28.20;;;;;;5978409;29;20042;-72
2022/08/14 05:37:00;;;;;;;6.20;1.90;;;27.10;28.20;;;;;;5994693;29;20030;-71
2022/08/14 05:40:02;;;;;;;5.47;2.05;;;27.10;28.30;;;;;;6002522;29;20396;-71
2022/08/14 05:43:03;;;;;;;3.17;1.80;;;27.00;28.10;;;;;;5994265;29;20065;-70
2022/08/14 05:46:04;;;;;;;2.85;1.75;;;27.00;28.20;;;;;;6005079;29;20081;-70
2022/08/14 05:49:07;;;;;;;6.57;1.75;;;27.00;28.10;;;;;;6002352;29;20046;-72
2022/08/14 05:52:08;;;;;;;5.25;1.70;;;27.00;28.00;;;;;;6004156;29;20129;-72
2022/08/14 05:55:10;;;;;;;4.95;1.83;;;27.00;28.00;;;;;;6002576;29;20045;-71
2022/08/14 05:58:11;;;;;;;2.03;1.67;;;27.00;28.00;;;;;;6003593;29;20052;-71
2022/08/14 06:01:12;;;;;;;2.63;1.60;;;26.90;28.00;;;;;;6000390;29;20119;-71
2022/08/14 06:04:13;;;;;;;3.78;1.73;;;26.90;28.10;;;;;;6002393;29;20042;-71
2022/08/14 06:07:14;;;;;;;3.40;1.60;;;26.90;28.30;;;;;;6018885;29;20038;-71
2022/08/14 06:10:16;;;;;;;2.80;1.80;;;26.90;28.50;;;;;;6002617;29;20041;-71
2022/08/14 06:13:17;;;;;;;6.82;2.20;;;26.90;28.80;;;;;;6001825;29;20048;-71
2022/08/14 06:16:18;;;;;;;6.43;2.17;;;26.90;29.20;;;;;;6008096;29;20388;-72
2022/08/14 06:19:20;;;;;;;10.63;2.50;;;26.90;29.70;;;;;;6009757;29;20058;-72
2022/08/14 06:22:21;;;;;;;10.70;2.85;;;26.80;31.10;;;;;;6009427;29;20095;-69
2022/08/14 06:25:22;;;;;;;11.50;3.30;;;26.40;33.70;;;;;;6008785;29;20464;-72
2022/08/14 06:28:25;;;;;;;13.45;3.53;;;25.90;37.30;;;;;;6009004;29;20130;-70
2022/08/14 06:35:48;;;;;;;11.40;3.45;;;24.60;44.10;;;;;;6007986;29;20121;-68
2022/08/14 06:38:51;;;;;;;9.25;2.95;;;23.60;48.10;;;;;;6010528;29;20038;-70
2022/08/14 06:41:52;;;;;;;8.30;3.08;;;22.90;50.60;;;;;;6009171;29;20053;-70
2022/08/14 06:44:53;;;;;;;5.57;2.63;;;22.60;51.40;;;;;;5992474;29;20435;-68
2022/08/14 06:56:44;;;;;;;11.00;2.75;;;22.90;52.80;;;;;;6014766;29;20037;-69
2022/08/14 06:59:44;;;;;;;9.63;2.60;;;23.20;52.60;;;;;;6019983;29;20052;-69
2022/08/14 07:06:07;;;;;;;8.63;2.83;;;22.90;53.70;;;;;;6018404;29;20034;-70
2022/08/14 07:09:11;;;;;;;7.53;2.67;;;22.80;54.10;;;;;;6004274;29;20041;-70
2022/08/14 07:12:13;;;;;;;6.78;2.65;;;22.80;54.50;;;;;;6002165;29;20038;-69
2022/08/14 07:15:14;;;;;;;8.32;3.17;;;22.80;54.70;;;;;;5998522;29;20054;-70
2022/08/14 07:18:23;;;;;;;7.53;3.13;;;22.90;54.70;;;;;;6014686;29;20034;-69
2022/08/14 07:21:24;;;;;;;15.32;3.40;;;22.90;55.10;;;;;;5989197;29;20441;-69
2022/08/14 07:24:25;;;;;;;7.65;2.80;;;22.80;55.30;;;;;;6003782;29;21506;-70
2022/08/14 07:27:26;;;;;;;7.28;2.75;;;22.70;56.00;;;;;;6004167;29;20049;-70
2022/08/14 07:30:27;;;;;;;8.57;2.97;;;22.60;56.70;;;;;;5989193;29;20415;-70
2022/08/14 07:33:30;;;;;;;7.25;2.80;;;22.50;57.30;;;;;;5992500;29;20038;-70
2022/08/14 07:40:53;;;;;;;7.78;3.45;;;22.50;57.80;;;;;;6001527;29;20046;-69
2022/08/14 07:43:54;;;;;;;8.10;2.83;;;22.40;58.20;;;;;;6004980;29;20046;-70
2022/08/14 07:46:55;;;;;;;8.02;3.17;;;22.40;58.30;;;;;;6007929;29;20119;-70
2022/08/14 07:50:18;;;;;;;6.32;3.00;;;22.50;58.50;;;;;;6007790;29;20038;-69
2022/08/14 07:57:42;;;;;;;8.85;2.95;;;22.40;59.10;;;;;;6010139;29;20049;-70
2022/08/14 08:05:05;;;;;;;8.13;3.20;;;22.40;59.70;;;;;;6015877;29;20464;-70
2022/08/14 08:08:07;;;;;;;11.85;4.03;;;22.40;60.10;;;;;;5998364;29;20045;-74
2022/08/14 08:45:56;;;;;;;6.03;2.75;;;21.40;63.70;;;;;;6016432;29;20042;-73
2022/08/14 08:48:57;;;;;;;6.70;2.53;;;21.30;63.70;;;;;;6011735;29;20065;-74
2022/08/14 08:52:03;;;;;;;7.28;3.05;;;21.30;63.10;;;;;;6011981;29;20037;-73
2022/08/14 08:55:04;;;;;;;8.63;5.05;;;21.30;63.10;;;;;;6012823;29;20049;-73
2022/08/14 08:58:15;;;;;;;8.20;4.10;;;21.20;63.10;;;;;;6011761;29;20048;-74
2022/08/14 09:01:28;;;;;;;5.00;2.72;;;21.20;63.00;;;;;;6001106;29;20042;-74
2022/08/14 09:04:34;;;;;;;4.90;2.83;;;21.20;62.90;;;;;;5998768;29;20379;-74
2022/08/14 09:11:58;;;;;;;3.85;2.20;;;21.20;62.30;;;;;;6016888;29;20042;-74
2022/08/14 09:19:21;;;;;;;4.68;2.40;;;21.20;62.10;;;;;;6020541;29;20030;-74
2022/08/14 09:22:22;;;;;;;3.67;2.35;;;21.20;61.70;;;;;;5996684;29;20034;-74
2022/08/14 09:25:23;;;;;;;4.82;2.70;;;21.30;61.70;;;;;;6020031;29;20486;-74
2022/08/14 09:28:24;;;;;;;8.73;3.05;;;21.20;62.10;;;;;;6005445;29;20121;-73
2022/08/14 09:31:27;;;;;;;5.93;2.78;;;21.20;62.30;;;;;;6022510;29;20042;-73
2022/08/14 09:34:49;;;;;;;4.05;2.47;;;21.20;62.50;;;;;;6019566;29;20086;-73
2022/08/14 09:38:08;;;;;;;4.85;2.97;;;21.20;62.70;;;;;;5998983;29;20087;-75
2022/08/14 09:41:18;;;;;;;8.82;3.33;;;21.20;62.80;;;;;;5995250;29;20053;-74
2022/08/14 09:44:44;;;;;;;5.03;3.15;;;21.30;62.90;;;;;;6010487;29;20054;-75
2022/08/14 09:47:55;;;;;;;7.85;3.28;;;21.40;62.70;;;;;;5992068;29;20061;-74
2022/08/14 09:50:57;;;;;;;7.35;4.07;;;21.50;62.50;;;;;;6010353;29;20042;-75
2022/08/14 09:54:09;;;;;;;8.15;3.03;;;21.50;62.40;;;;;;5995351;29;20038;-74
2022/08/14 09:57:26;;;;;;;9.10;2.85;;;21.60;62.30;;;;;;6011257;29;20057;-75
2022/08/14 10:00:59;;;;;;;9.68;3.75;;;21.60;62.10;;;;;;6004763;29;20050;-74
2022/08/14 10:04:00;;;;;;;10.07;4.82;;;21.70;62.00;;;;;;6011356;29;20046;-75
2022/08/14 10:07:01;;;;;;;13.70;5.53;;;21.70;61.80;;;;;;5995212;29;20038;-76
2022/08/14 10:10:04;;;;;;;14.68;5.38;;;21.70;62.00;;;;;;5998828;29;20121;-75
2022/08/14 10:13:23;;;;;;;17.20;5.25;;;21.70;62.20;;;;;;6012228;29;20087;-75
2022/08/14 10:16:27;;;;;;;17.85;4.97;;;21.70;62.60;;;;;;5990887;29;20113;-74
2022/08/14 10:19:28;;;;;;;6.15;3.60;;;21.80;62.40;;;;;;6005791;29;20054;-76
2022/08/14 10:22:29;;;;;;;13.30;7.25;;;21.90;62.50;;;;;;6009846;29;20046;-75
2022/08/14 10:25:39;;;;;;;18.38;7.13;;;22.00;62.40;;;;;;5998887;29;20065;-76
2022/08/14 10:28:43;;;;;;;8.25;3.75;;;22.10;62.40;;;;;;5992661;29;20054;-76
2022/08/14 10:31:55;;;;;;;10.27;4.38;;;22.20;61.90;;;;;;5993223;29;20049;-76
2022/08/14 10:35:10;;;;;;;7.75;3.70;;;22.40;61.60;;;;;;6006169;29;20098;-76
2022/08/14 10:38:11;;;;;;;6.90;3.67;;;22.40;61.20;;;;;;6004511;29;20052;-75
2022/08/14 10:41:16;;;;;;;10.68;5.32;;;22.40;61.00;;;;;;5993399;29;20042;-77
2022/08/14 10:44:23;;;;;;;16.75;7.03;;;22.40;60.80;;;;;;5998931;29;20476;-76
2022/08/14 10:47:38;;;;;;;29.77;13.27;;;22.40;60.50;;;;;;6008074;29;20053;-76
2022/08/14 10:50:44;;;;;;;16.52;8.65;;;22.40;60.40;;;;;;6008473;29;20038;-77
2022/08/14 10:53:54;;;;;;;12.57;4.72;;;22.40;60.60;;;;;;5995490;29;20057;-77
2022/08/14 10:57:17;;;;;;;8.90;3.17;;;22.40;60.70;;;;;;5977893;29;20528;-76
2022/08/14 11:00:25;;;;;;;5.70;3.47;;;22.50;60.70;;;;;;6003223;29;20498;-76
2022/08/14 11:03:38;;;;;;;7.88;4.32;;;22.70;60.50;;;;;;6011676;29;20038;-77
2022/08/14 11:06:39;;;;;;;11.35;3.85;;;22.90;60.10;;;;;;5999399;29;20518;-77
2022/08/14 11:09:53;;;;;;;3.72;2.75;;;23.20;60.00;;;;;;5992542;29;20054;-77
2022/08/14 11:12:56;;;;;;;5.03;3.45;;;23.50;59.50;;;;;;6002965;29;20125;-77
2022/08/14 11:16:00;;;;;;;5.82;3.10;;;23.80;58.90;;;;;;5989676;29;20435;-78
2022/08/14 11:19:02;;;;;;;5.32;3.25;;;24.00;58.50;;;;;;6003661;29;20049;-77
2022/08/14 11:22:04;;;;;;;3.63;2.80;;;24.20;58.30;;;;;;5991048;29;20069;-77
2022/08/14 11:25:07;;;;;;;5.93;3.53;;;24.30;58.00;;;;;;6012233;29;20080;-78
2022/08/14 11:28:09;;;;;;;4.35;3.10;;;24.50;57.60;;;;;;6007106;29;20075;-77
2022/08/14 11:31:12;;;;;;;5.15;2.85;;;24.80;57.30;;;;;;5990261;29;20050;-76
2022/08/14 11:34:14;;;;;;;14.07;2.92;;;25.00;56.60;;;;;;5988772;29;20058;-75
2022/08/14 11:37:14;;;;;;;4.10;2.65;;;25.20;56.10;;;;;;6003728;29;20480;-73
2022/08/14 11:40:16;;;;;;;6.05;2.85;;;25.20;55.80;;;;;;6006837;29;20101;-73
2022/08/14 11:43:17;;;;;;;10.40;5.60;;;25.30;55.70;;;;;;5973162;29;20065;-75
2022/08/14 11:46:22;;;;;;;7.82;3.95;;;25.30;55.80;;;;;;6008271;29;20379;-74
2022/08/14 11:49:27;;;;;;;6.38;3.13;;;25.40;55.90;;;;;;5991714;29;20069;-73
2022/08/14 11:52:37;;;;;;;4.93;2.92;;;25.50;55.90;;;;;;6010012;29;20045;-74
2022/08/14 11:55:38;;;;;;;11.93;5.78;;;25.70;55.40;;;;;;6010387;29;20037;-75
2022/08/14 11:58:39;;;;;;;15.18;6.57;;;25.80;54.90;;;;;;6017528;29;20050;-75
2022/08/14 12:01:40;;;;;;;13.82;6.47;;;25.90;55.30;;;;;;6021918;29;20368;-75
2022/08/14 12:04:52;;;;;;;10.00;5.25;;;25.90;54.50;;;;;;6017222;29;20071;-76
2022/08/14 12:07:54;;;;;;;12.80;6.57;;;25.80;54.60;;;;;;6002955;29;20081;-76
2022/08/14 12:10:57;;;;;;;6.50;2.90;;;25.80;54.80;;;;;;6018417;29;20384;-75
2022/08/14 12:14:07;;;;;;;2.63;1.77;;;25.80;54.80;;;;;;6020101;29;20041;-74
2022/08/14 12:17:08;;;;;;;8.02;3.00;;;25.90;55.00;;;;;;5984459;29;20052;-73
2022/08/14 12:20:10;;;;;;;2.70;1.80;;;26.00;55.20;;;;;;6004276;29;20188;-74
2022/08/14 12:23:23;;;;;;;6.00;2.67;;;26.00;54.90;;;;;;6022500;29;20037;-74
2022/08/14 12:26:23;;;;;;;5.95;3.30;;;26.10;54.80;;;;;;6019747;29;20041;-74
2022/08/14 12:29:24;;;;;;;7.30;4.13;;;26.20;54.80;;;;;;6020260;29;20129;-74
2022/08/14 12:32:25;;;;;;;9.43;4.18;;;26.30;54.90;;;;;;6004056;29;20455;-74
2022/08/14 12:35:48;;;;;;;5.47;3.25;;;26.60;54.80;;;;;;6023067;29;20053;-74
2022/08/14 12:38:54;;;;;;;4.88;2.78;;;26.90;54.70;;;;;;6021288;29;20044;-75
2022/08/14 12:42:05;;;;;;;4.57;2.80;;;27.00;54.10;;;;;;6004147;29;20054;-74
2022/08/14 12:45:07;;;;;;;5.82;2.70;;;27.10;53.80;;;;;;6022744;29;20046;-74
2022/08/14 12:48:08;;;;;;;3.38;2.88;;;27.20;53.60;;;;;;6024091;29;20537;-74
2022/08/14 12:51:21;;;;;;;8.93;5.25;;;27.50;53.40;;;;;;6007756;29;20052;-74
2022/08/14 12:54:22;;;;;;;7.53;5.63;;;27.70;53.10;;;;;;6013188;29;20385;-75
2022/08/14 12:57:40;;;;;;;9.82;6.60;;;27.90;52.60;;;;;;6011165;29;20046;-75
2022/08/14 13:00:49;;;;;;;;;;;27.90;52.40;;;;;;5990219;29;20042;-74
2022/08/14 13:03:51;;;;;;;4.93;3.20;;;28.10;52.60;;;;;;6007178;29;20012;-74
2022/08/14 13:06:52;;;;;;;7.43;3.63;;;28.20;51.80;;;;;;6008951;29;20310;-75
2022/08/14 13:09:57;;;;;;;6.38;3.30;;;28.40;51.30;;;;;;5992065;29;20053;-75
2022/08/14 13:12:59;;;;;;;3.85;3.10;;;28.80;50.80;;;;;;6008645;29;20048;-74
2022/08/14 13:16:01;;;;;;;8.63;4.75;;;29.20;50.00;;;;;;6008111;29;20042;-74
2022/08/14 13:19:02;;;;;;;6.40;3.25;;;29.50;49.60;;;;;;6001648;29;20488;-76
2022/08/14 13:22:03;;;;;;;2.67;2.13;;;30.00;48.90;;;;;;5991008;29;20042;-75
2022/08/14 13:25:05;;;;;;;3.58;2.88;;;30.00;48.70;;;;;;6008204;29;20098;-74
2022/08/14 13:28:07;;;;;;;5.60;2.88;;;29.70;48.60;;;;;;6008491;29;20046;-75
2022/08/14 13:31:12;;;;;;;4.85;2.60;;;29.40;48.80;;;;;;6004957;29;20482;-75
2022/08/14 13:34:13;;;;;;;7.18;3.40;;;29.10;49.00;;;;;;5987681;29;20132;-74
2022/08/14 13:37:15;;;;;;;4.13;3.00;;;28.90;49.50;;;;;;5977397;29;20049;-74
2022/08/14 13:40:19;;;;;;;3.97;2.72;;;28.80;50.00;;;;;;5991353;29;20042;-73
2022/08/14 13:43:23;;;;;;;2.95;2.05;;;28.70;49.90;;;;;;6008733;29;20482;-74
2022/08/14 13:46:25;;;;;;;8.48;3.20;;;28.60;49.90;;;;;;5996966;29;20476;-74
2022/08/14 13:49:26;;;;;;;8.23;3.28;;;28.50;50.00;;;;;;6010972;29;20046;-75
2022/08/14 13:52:39;;;;;;;4.82;3.05;;;28.30;50.50;;;;;;6007659;29;20476;-74
2022/08/14 13:55:43;;;;;;;7.88;4.32;;;28.30;50.70;;;;;;6008244;29;20038;-74
2022/08/14 13:58:44;;;;;;;5.50;3.08;;;29.20;49.60;;;;;;6006908;29;20413;-73
2022/08/14 14:01:45;;;;;;;7.80;4.13;;;30.70;46.60;;;;;;6002554;29;20053;-75
2022/08/14 14:04:47;;;;;;;10.88;5.10;;;31.90;44.40;;;;;;6008908;29;20403;-75
2022/08/14 14:07:51;;;;;;;10.27;4.60;;;32.50;42.60;;;;;;6017292;29;20149;-75
2022/08/14 14:10:55;;;;;;;6.18;2.40;;;32.20;42.40;;;;;;6023732;29;20092;-75
2022/08/14 14:14:00;;;;;;;3.72;1.90;;;31.70;43.00;;;;;;6005920;29;20042;-77
2022/08/14 14:17:04;;;;;;;5.00;2.15;;;31.20;43.60;;;;;;5993506;29;20744;-75
2022/08/14 14:20:11;;;;;;;4.35;3.28;;;30.70;44.30;;;;;;5993762;29;20049;-76
2022/08/14 14:23:13;;;;;;;2.60;2.23;;;30.20;45.10;;;;;;6007845;29;20041;-75
2022/08/14 14:26:16;;;;;;;3.55;1.90;;;29.80;45.80;;;;;;6009686;29;20282;-75
2022/08/14 14:29:22;;;;;;;2.80;1.63;;;29.40;46.40;;;;;;6007869;29;20478;-75
2022/08/14 14:32:30;;;;;;;9.52;1.70;;;29.00;46.90;;;;;;6001007;29;20045;-75
2022/08/14 14:35:31;;;;;;;2.30;1.83;;;28.70;47.60;;;;;;6015338;29;20042;-77
2022/08/14 14:38:33;;;;;;;5.32;2.10;;;28.40;48.20;;;;;;6016639;29;20049;-76
2022/08/14 14:41:38;;;;;;;7.15;2.03;;;28.30;48.70;;;;;;6019803;29;20361;-74
2022/08/14 14:44:42;;;;;;;3.67;2.10;;;28.10;49.00;;;;;;6016066;29;20045;-77
2022/08/14 14:47:50;;;;;;;3.15;1.60;;;28.00;49.50;;;;;;6015094;29;20058;-78
2022/08/14 14:50:51;;;;;;;;;;;27.80;49.90;;;;;;6017960;29;20049;-77
2022/08/14 14:53:53;;;;;;;2.50;1.95;;;27.70;50.40;;;;;;6014335;29;19924;-77
2022/08/14 14:56:55;;;;;;;6.97;1.90;;;27.50;50.70;;;;;;6020389;29;20069;-78
2022/08/14 14:59:56;;;;;;;3.33;2.20;;;27.40;51.10;;;;;;6018417;29;20443;-79
2022/08/14 15:02:57;;;;;;;4.72;2.35;;;27.20;51.60;;;;;;6017033;29;20138;-78
2022/08/14 15:10:21;;;;;;;9.07;2.55;;;26.90;53.60;;;;;;6010548;29;20063;-78
2022/08/14 15:13:22;;;;;;;10.38;2.58;;;26.70;54.50;;;;;;6014432;29;20034;-77
2022/08/14 15:20:45;;;;;;;5.05;2.50;;;26.10;55.80;;;;;;6020323;29;20045;-75
2022/08/14 15:23:46;;;;;;;7.55;3.22;;;25.60;57.40;;;;;;6013875;29;20041;-74
2022/08/14 15:26:47;;;;;;;7.40;3.33;;;25.20;58.60;;;;;;6008993;29;20056;-74
2022/08/14 15:29:48;;;;;;;9.20;3.10;;;24.90;59.30;;;;;;6012865;29;20069;-74
2022/08/14 15:32:50;;;;;;;5.30;3.17;;;24.70;60.50;;;;;;6013789;29;20034;-74
2022/08/14 15:35:53;;;;;;;7.10;2.78;;;24.50;62.20;;;;;;6019819;29;20033;-74
2022/08/14 15:38:54;;;;;;;6.30;3.28;;;24.40;63.90;;;;;;6018953;29;20353;-74
2022/08/14 15:41:59;;;;;;;5.43;3.00;;;24.20;64.90;;;;;;6021478;29;20070;-74
2022/08/14 15:44:59;;;;;;;5.78;3.65;;;24.30;65.40;;;;;;6019801;29;20357;-75
2022/08/14 15:48:01;;;;;;;6.18;2.70;;;24.40;65.90;;;;;;6013628;29;20045;-74
2022/08/14 15:51:03;;;;;;;8.57;3.13;;;24.80;65.60;;;;;;5995154;29;20050;-75
2022/08/14 15:54:04;;;;;;;5.75;2.65;;;25.00;64.70;;;;;;6002879;29;20433;-74
2022/08/14 15:57:07;;;;;;;7.18;3.10;;;25.30;64.00;;;;;;5996075;29;20042;-73
2022/08/14 16:03:29;;;;;;;8.52;2.80;;;25.50;63.70;;;;;;5988590;29;20041;-74
2022/08/14 16:06:30;;;;;;;6.60;3.08;;;25.80;63.40;;;;;;6004017;29;20603;-74
2022/08/14 16:09:31;;;;;;;6.03;2.55;;;26.20;61.70;;;;;;6022173;29;20037;-74
2022/08/14 16:12:32;;;;;;;3.97;2.13;;;26.80;60.40;;;;;;6005482;29;20038;-74
2022/08/14 16:15:33;;;;;;;4.10;2.10;;;27.60;58.50;;;;;;6020291;29;20056;-76
2022/08/14 16:18:38;;;;;;;8.23;2.65;;;28.50;57.00;;;;;;5977002;29;20042;-75
2022/08/14 16:21:40;;;;;;;6.15;2.72;;;29.60;55.30;;;;;;5993940;29;20481;-75
2022/08/14 16:24:43;;;;;;;12.18;6.88;;;30.70;53.20;;;;;;5995379;29;20046;-75
2022/08/14 16:27:44;;;;;;;4.93;2.47;;;31.80;51.20;;;;;;5981543;29;20559;-75
2022/08/14 16:30:47;;;;;;;2.22;2.03;;;32.70;48.70;;;;;;6009053;29;20046;-74
2022/08/14 16:33:48;;;;;;;4.80;2.78;;;33.40;46.60;;;;;;5994308;29;20048;-74
2022/08/14 16:36:49;;;;;;;3.65;1.80;;;33.80;46.00;;;;;;6011978;29;20038;-75
2022/08/14 16:39:51;;;;;;;3.25;2.50;;;33.70;45.70;;;;;;6009524;29;20053;-75
2022/08/14 16:42:57;;;;;;;5.85;1.83;;;33.00;46.50;;;;;;5994919;29;20030;-75
2022/08/14 16:45:58;;;;;;;3.03;1.70;;;32.10;47.50;;;;;;6008472;29;20046;-75
2022/08/14 16:49:09;;;;;;;3.05;1.60;;;31.20;48.30;;;;;;6015112;29;20376;-75
2022/08/14 16:52:16;;;;;;;2.65;1.85;;;30.40;49.20;;;;;;6018901;29;20042;-75
2022/08/14 16:55:18;;;;;;;2.88;1.50;;;29.60;50.20;;;;;;6020270;29;20144;-73
2022/08/14 16:58:20;;;;;;;5.57;2.25;;;28.90;51.20;;;;;;6019039;29;20529;-75
2022/08/14 17:01:24;;;;;;;2.45;1.80;;;28.40;52.20;;;;;;5990838;29;20072;-74
2022/08/14 17:04:30;;;;;;;2.95;1.52;;;27.90;53.10;;;;;;6004848;29;20069;-74
2022/08/14 17:07:31;;;;;;;7.07;2.00;;;27.60;53.70;;;;;;5993301;29;20456;-73
2022/08/14 17:10:44;;;;;;;8.10;3.15;;;27.30;54.40;;;;;;6010824;29;20037;-74
2022/08/14 17:13:45;;;;;;;1.60;1.42;;;27.00;55.10;;;;;;5978691;29;20050;-75
2022/08/14 17:16:45;;;;;;;5.10;2.88;;;26.80;55.70;;;;;;6009992;29;20054;-75
2022/08/14 17:19:47;;;;;;;6.72;3.05;;;26.60;55.90;;;;;;5992266;29;20049;-78
2022/08/14 17:22:58;;;;;;;8.68;5.07;;;26.50;56.20;;;;;;6009623;29;20037;-76
2022/08/14 17:25:59;;;;;;;7.30;3.38;;;26.40;56.50;;;;;;6011416;29;20034;-77
2022/08/14 17:29:20;;;;;;;2.80;2.08;;;26.30;56.80;;;;;;6014936;29;20053;-77